Hauptseite
METAR-TAF:

METAR-TAF

Flughäfen :

Georgetown, Ascension

Flugfeld Wideawake

Breite: 07-58S, Länge: 014-24W, Höhe: 86 m

Beobachtung

Neuester Wetterbericht von vor 3 Stunden und 4 Minuten, um 20:50 UTC
Wind 14 kt aus Ost/Südost
Temperatur 24°C
Luftfeuchtigkeit 94%
Luftdruck 1013 hPa
Sichtweite 10 km oder mehr
Leicht bewölkt in der Höhe von 700 ft
Aufgelockert bewölkt in der Höhe von 1000 ft
Durchbrochene Bewölkung in der Höhe von 2000 ft

METAR: FHAW 172050Z 12014KT 9999 FEW007 SCT010 BKN020 24/23 Q1013 GRN

Zeit: 23:54 (23:54 UTC)


TAF: fehlend

Wetterbeobachtungen und Prognosen von mehr als 4000 Flughäfen (METAR und TAF Bericht).

Die verfügbaren Stationen werden durch gelbe und rote Markierungen auf der Karte dargestellt.

Führen Sie die Maus auf sie, um den Namen der Station zu sehen.

Darauf klicken, um die Beobachtung von Wetterbeobachtungen und Prognosen zu sehen.

Um die Karte zu ändern : klicken Sie auf den grünen Tasten mit einem schwarzen Kreuz Zum Vergrößern, auf den grünen Button mit einem Gedankenstrich zu verkleinern, oder auf die grünen Pfeile für benachbarte Karten.


METAR-TAF: